Whitesville, NY (14897)

9:28 AM EDT on September 02, 2015 (GMT -0400)
Willing | | Change Station
CLOSE
Current Station
Personal Weather Station
Location: Wellsville, NY
Elevation: 1744 ft
Nearby Weather Stations

Elev 1744 ft 42.07 °N, 77.92 °W | Updated 16 seconds ago

Fog
Fog
70.0 °F
Feels Like 70.0 °F
N
0.0
Wind Variable Wind from North

Today
High -- | Low -- °F
--% Chance of Precip.
Yesterday
High -- | Low -- °F
Precip. -- in
6:37 AM 7:43 PM
Waning Gibbous, 80% visible
Pressure 30.15 in
Visibility 3.0 miles
Clouds Clear
Dew Point 64 °F
Humidity 81%
Rainfall Not available.
Snow Depth Not available.
UV 3 out of 12
Pollen 10.50 out of 12
Air Quality Not available.
Flu Activity Not available.
SPECI KELZ 021323Z AUTO 00000KT 3SM BR CLR 21/19 A3015 RMK AO2 T02060189
Pressure 30.15 in
Visibility 3.0 miles
Clouds Clear
Dew Point 64 °F
Humidity 81%
Rainfall Not available.
Snow Depth Not available.
UV 3 out of 12
Pollen 10.50 out of 12
Air Quality Not available.
Flu Activity Not available.
SPECI KELZ 021323Z AUTO 00000KT 3SM BR CLR 21/19 A3015 RMK AO2 T02060189

10-Day Weather Forecast

×

Almanac

Astronomy

Sep. 02, 2015 Rise Set
Actual Time
Civil Twilight
Nautical Twilight
Astronomical Twilight
Moon
Length of Visible Light
Length of Day
Tomorrow will be .
, % of the Moon is Illuminated

Today's Extremes

State Highs State Lows

Community

WunderPhotos

Upload Photos

1,851,749 photos uploaded!

WunderBlogs® & News

Nearby

Air Quality

  Air Quality AQ Index Pollutant
Not available.

Snow Depth

Station Depth Elevation

Earthquake Activity

City Distance Mag. Time & Date
Minimum magnitude displayed is 2.5.

Coastal Water Temperatures

Place Temperature

Stations

Nearby Weather Stations

Station Location Temp. Windchill Dew Point Humidity Wind Precip. Elev Updated Type